createdAt,value
2022-08-16T00:01:22.183Z,16.60
2022-08-16T00:03:52.796Z,16.50
2022-08-16T00:06:19.932Z,16.40
2022-08-16T00:08:47.862Z,16.40
2022-08-16T00:11:16.580Z,16.50
2022-08-16T00:13:53.804Z,16.70
2022-08-16T00:17:01.375Z,16.80
2022-08-16T00:19:16.019Z,16.70
2022-08-16T00:21:43.856Z,16.70
2022-08-16T00:24:12.684Z,16.60
2022-08-16T00:26:44.552Z,16.50
2022-08-16T00:29:17.529Z,16.30
2022-08-16T00:32:00.335Z,16.30
2022-08-16T00:34:52.211Z,16.40
2022-08-16T00:37:18.719Z,16.50
2022-08-16T00:39:57.671Z,16.60
2022-08-16T00:42:30.558Z,16.50
2022-08-16T00:45:09.581Z,16.40
2022-08-16T00:47:49.141Z,16.30
2022-08-16T00:50:20.388Z,16.20
2022-08-16T00:52:51.479Z,16.10
2022-08-16T00:55:22.071Z,16.10
2022-08-16T00:57:58.837Z,16.10
2022-08-16T01:00:30.141Z,16.10
2022-08-16T01:02:59.586Z,16.20
2022-08-16T01:05:27.378Z,16.20
2022-08-16T01:07:55.055Z,16.20
2022-08-16T01:10:32.691Z,16.20
2022-08-16T01:13:08.440Z,16.10
2022-08-16T01:15:43.036Z,16.10
2022-08-16T01:18:39.465Z,16.20
2022-08-16T01:21:16.214Z,16.20
2022-08-16T01:24:52.687Z,16.20
2022-08-16T01:27:17.501Z,16.20
2022-08-16T01:29:58.196Z,16.10
2022-08-16T01:32:31.782Z,16.10
2022-08-16T01:35:05.896Z,15.80
2022-08-16T01:37:42.339Z,15.60
2022-08-16T01:40:09.991Z,15.50
2022-08-16T01:42:36.994Z,15.40
2022-08-16T01:45:09.319Z,15.40
2022-08-16T01:47:37.677Z,15.40
2022-08-16T01:50:42.143Z,15.20
2022-08-16T01:53:04.039Z,15.00
2022-08-16T01:55:35.703Z,14.80
2022-08-16T01:58:03.074Z,14.70
2022-08-16T02:00:30.018Z,14.70
2022-08-16T02:02:57.295Z,14.60
2022-08-16T02:05:24.229Z,14.60
2022-08-16T02:07:52.072Z,14.50
2022-08-16T02:10:20.751Z,14.50
2022-08-16T02:12:51.096Z,14.40
2022-08-16T02:15:26.002Z,14.40
2022-08-16T02:17:58.219Z,14.40
2022-08-16T02:20:27.955Z,14.40
2022-08-16T02:22:57.355Z,14.30
2022-08-16T02:25:24.964Z,14.20
2022-08-16T02:28:11.872Z,14.20
2022-08-16T02:30:50.499Z,14.20
2022-08-16T02:33:17.773Z,14.20
2022-08-16T02:35:49.857Z,14.10
2022-08-16T02:38:22.313Z,14.00
2022-08-16T02:40:49.070Z,14.00
2022-08-16T02:43:16.303Z,14.00
2022-08-16T02:45:43.570Z,14.00
2022-08-16T02:48:29.190Z,13.90
2022-08-16T02:51:10.345Z,13.90
2022-08-16T02:53:43.318Z,13.90
2022-08-16T02:56:12.315Z,13.90
2022-08-16T02:58:44.010Z,13.90
2022-08-16T03:01:24.988Z,13.80
2022-08-16T03:04:39.497Z,13.70
2022-08-16T03:06:47.212Z,13.60
2022-08-16T03:09:16.446Z,13.50
2022-08-16T03:11:44.764Z,13.50
2022-08-16T03:14:12.355Z,13.40
2022-08-16T03:16:42.165Z,13.40
2022-08-16T03:19:26.274Z,13.40
2022-08-16T03:22:12.994Z,13.40
2022-08-16T03:24:46.733Z,13.30
2022-08-16T03:27:13.737Z,13.20
2022-08-16T03:29:42.757Z,13.10
2022-08-16T03:32:21.290Z,13.10
2022-08-16T03:34:49.860Z,13.10
2022-08-16T03:37:17.299Z,13.00
2022-08-16T03:39:44.144Z,13.00
2022-08-16T03:42:10.932Z,13.00
2022-08-16T03:44:44.831Z,13.00
2022-08-16T03:47:19.088Z,13.10
2022-08-16T03:49:51.574Z,13.00
2022-08-16T03:52:20.215Z,13.00
2022-08-16T03:54:58.232Z,13.10
2022-08-16T03:57:31.625Z,13.10
2022-08-16T04:00:36.077Z,13.20
2022-08-16T04:03:08.701Z,13.20
2022-08-16T04:05:46.741Z,13.20
2022-08-16T04:08:23.241Z,13.20
2022-08-16T04:10:54.088Z,13.10
2022-08-16T04:14:01.188Z,13.10
2022-08-16T04:16:27.245Z,13.10
2022-08-16T04:19:02.400Z,13.10
2022-08-16T04:21:36.128Z,13.30
2022-08-16T04:24:12.987Z,13.20
2022-08-16T04:26:42.593Z,13.30
2022-08-16T04:29:16.432Z,13.20
2022-08-16T04:31:56.341Z,13.20
2022-08-16T04:34:27.911Z,13.30
2022-08-16T04:36:56.621Z,13.20
2022-08-16T04:39:24.383Z,13.20
2022-08-16T04:42:10.987Z,13.20
2022-08-16T04:44:53.350Z,13.20
2022-08-16T04:47:31.602Z,13.20
2022-08-16T04:50:00.884Z,13.20
2022-08-16T04:52:33.112Z,13.20
2022-08-16T04:55:11.754Z,13.20
2022-08-16T04:57:39.449Z,13.20
2022-08-16T05:00:30.561Z,13.30
2022-08-16T05:03:01.215Z,13.30
2022-08-16T05:05:32.721Z,13.30
2022-08-16T05:08:00.665Z,13.30
2022-08-16T05:10:47.412Z,13.30
2022-08-16T05:13:17.456Z,13.30
2022-08-16T05:15:44.216Z,13.40
2022-08-16T05:18:15.856Z,13.40
2022-08-16T05:21:01.231Z,13.50
2022-08-16T05:23:31.767Z,13.50
2022-08-16T05:25:59.759Z,13.60
2022-08-16T05:28:30.937Z,13.70
2022-08-16T05:31:06.785Z,13.80
2022-08-16T05:33:33.771Z,13.80
2022-08-16T05:36:03.619Z,13.90
2022-08-16T05:38:39.047Z,14.00
2022-08-16T05:41:06.981Z,14.10
2022-08-16T05:43:43.238Z,14.30
2022-08-16T05:46:30.331Z,14.40
2022-08-16T05:49:08.511Z,14.40
2022-08-16T05:51:38.675Z,14.50
2022-08-16T05:54:07.895Z,14.60
2022-08-16T05:56:37.540Z,14.60
2022-08-16T05:59:06.079Z,14.70
2022-08-16T06:01:38.378Z,14.80
2022-08-16T06:04:13.259Z,14.90
2022-08-16T06:06:55.865Z,15.00
2022-08-16T06:09:42.933Z,15.20
2022-08-16T06:12:12.227Z,15.30
2022-08-16T06:14:40.077Z,15.40
2022-08-16T06:17:07.341Z,15.60
2022-08-16T06:19:35.681Z,15.70
2022-08-16T06:22:02.754Z,15.90
2022-08-16T06:24:53.550Z,16.00
2022-08-16T06:27:16.396Z,16.00
2022-08-16T06:29:44.676Z,16.20
2022-08-16T06:32:27.126Z,16.20
2022-08-16T06:35:01.870Z,16.40
2022-08-16T06:37:37.610Z,16.50
2022-08-16T06:40:12.739Z,16.70
2022-08-16T06:42:47.882Z,16.70
2022-08-16T06:45:15.397Z,17.00
2022-08-16T06:47:54.286Z,17.10
2022-08-16T06:50:28.699Z,17.30
2022-08-16T06:53:00.449Z,17.50
2022-08-16T06:55:34.365Z,17.70
2022-08-16T06:58:02.019Z,17.90
2022-08-16T07:00:35.603Z,18.10
2022-08-16T07:03:27.183Z,18.30
2022-08-16T07:05:53.897Z,18.40
2022-08-16T07:08:21.036Z,18.50
2022-08-16T07:10:47.827Z,18.60
2022-08-16T07:13:19.853Z,18.70
2022-08-16T07:16:03.870Z,18.80
2022-08-16T07:18:32.679Z,18.90
2022-08-16T07:21:02.003Z,19.00
2022-08-16T07:23:37.270Z,19.10
2022-08-16T07:26:08.585Z,19.20
2022-08-16T07:28:35.554Z,19.30
2022-08-16T07:31:03.364Z,19.50
2022-08-16T07:33:53.801Z,19.70
2022-08-16T07:36:22.051Z,19.80
2022-08-16T07:38:49.986Z,19.90
2022-08-16T07:41:18.621Z,20.00
2022-08-16T07:43:46.294Z,20.10
2022-08-16T07:46:38.384Z,20.30
2022-08-16T07:49:03.030Z,20.30
2022-08-16T07:51:36.937Z,20.40
2022-08-16T07:54:10.015Z,20.50
2022-08-16T07:56:38.136Z,20.60
2022-08-16T07:59:06.688Z,20.60
2022-08-16T08:01:34.713Z,20.60
2022-08-16T08:04:05.287Z,20.70
2022-08-16T08:06:33.110Z,20.90
2022-08-16T08:09:00.814Z,21.10
2022-08-16T08:11:29.410Z,21.20
2022-08-16T08:14:03.621Z,21.40
2022-08-16T08:16:33.697Z,21.60
2022-08-16T08:19:03.292Z,21.80
2022-08-16T08:22:00.009Z,21.90
2022-08-16T08:24:21.550Z,21.90
2022-08-16T08:26:50.045Z,21.90
2022-08-16T08:29:22.850Z,21.90
2022-08-16T08:31:52.218Z,21.80
2022-08-16T08:34:21.154Z,21.90
2022-08-16T08:36:50.117Z,22.00
2022-08-16T08:39:21.952Z,22.10
2022-08-16T08:41:49.523Z,22.20
2022-08-16T08:44:27.966Z,22.40
2022-08-16T08:47:03.251Z,22.60
2022-08-16T08:49:47.007Z,22.70
2022-08-16T08:52:34.128Z,23.00
2022-08-16T08:55:10.288Z,22.90
2022-08-16T08:57:41.013Z,22.70
2022-08-16T09:00:13.571Z,22.80
2022-08-16T09:02:45.657Z,23.10
2022-08-16T09:05:20.579Z,23.20
2022-08-16T09:08:00.657Z,23.40
2022-08-16T09:10:30.867Z,23.40
2022-08-16T09:12:59.199Z,23.40
2022-08-16T09:15:33.058Z,23.70
2022-08-16T09:18:02.148Z,24.10
2022-08-16T09:20:58.478Z,24.40
2022-08-16T09:23:36.721Z,24.70
2022-08-16T09:26:44.383Z,24.70
2022-08-16T09:29:16.278Z,24.90
2022-08-16T09:31:42.820Z,25.20
2022-08-16T09:34:10.525Z,24.90
2022-08-16T09:36:46.045Z,25.00
2022-08-16T09:39:16.035Z,25.20
2022-08-16T09:41:53.319Z,25.50
2022-08-16T09:45:10.953Z,25.40
2022-08-16T09:47:10.148Z,25.30
2022-08-16T09:49:37.598Z,25.40
2022-08-16T09:52:09.480Z,25.30
2022-08-16T09:54:37.803Z,24.90
2022-08-16T09:57:04.944Z,25.10
2022-08-16T09:59:38.538Z,24.70
2022-08-16T10:02:23.006Z,24.90
2022-08-16T10:04:55.041Z,25.30
2022-08-16T10:07:23.020Z,25.70
2022-08-16T10:09:54.752Z,25.90
2022-08-16T10:12:57.205Z,25.90
2022-08-16T10:15:25.290Z,26.10
2022-08-16T10:18:01.087Z,26.40
2022-08-16T10:20:32.467Z,26.60
2022-08-16T10:23:06.861Z,26.50
2022-08-16T10:27:16.380Z,26.60
2022-08-16T10:28:30.007Z,26.80
2022-08-16T10:31:04.184Z,27.10
2022-08-16T10:33:40.277Z,27.30
2022-08-16T10:36:08.805Z,27.10
2022-08-16T10:38:38.400Z,27.20
2022-08-16T10:41:07.294Z,27.20
2022-08-16T10:43:36.040Z,27.40
2022-08-16T10:46:04.066Z,27.00
2022-08-16T10:48:50.806Z,26.50
2022-08-16T10:51:18.795Z,26.40
2022-08-16T10:53:45.910Z,26.10
2022-08-16T10:56:52.043Z,26.30
2022-08-16T11:02:21.786Z,27.30
2022-08-16T11:12:56.460Z,27.90
2022-08-16T11:15:24.509Z,28.30
2022-08-16T11:20:49.297Z,27.10
2022-08-16T11:23:17.342Z,26.90
2022-08-16T11:26:07.725Z,27.40
2022-08-16T11:31:19.746Z,28.30
2022-08-16T11:33:53.661Z,28.10
2022-08-16T11:36:25.124Z,27.50
2022-08-16T11:38:57.215Z,27.50
2022-08-16T11:41:25.635Z,26.40
2022-08-16T11:43:56.123Z,26.40
2022-08-16T11:46:45.209Z,27.20
2022-08-16T11:49:13.844Z,27.80
2022-08-16T11:51:44.361Z,27.90
2022-08-16T11:54:21.499Z,28.30
2022-08-16T11:56:56.885Z,28.60
2022-08-16T11:59:28.562Z,28.80
2022-08-16T12:01:59.705Z,28.60
2022-08-16T12:04:29.202Z,28.10
2022-08-16T12:06:57.336Z,28.10
2022-08-16T12:09:24.722Z,28.50
2022-08-16T12:11:53.033Z,28.80
2022-08-16T12:14:23.117Z,28.70
2022-08-16T12:16:57.748Z,28.80
2022-08-16T12:19:35.563Z,28.90
2022-08-16T12:22:05.543Z,28.80
2022-08-16T12:24:34.129Z,28.80
2022-08-16T12:27:02.587Z,29.10
2022-08-16T12:29:30.055Z,29.40
2022-08-16T12:32:01.353Z,29.20
2022-08-16T12:34:50.871Z,29.30
2022-08-16T12:37:20.898Z,29.20
2022-08-16T12:39:51.330Z,29.50
2022-08-16T12:42:20.432Z,29.80
2022-08-16T12:44:49.511Z,29.30
2022-08-16T12:47:36.896Z,28.60
2022-08-16T12:50:07.657Z,28.50
2022-08-16T12:52:44.512Z,28.40
2022-08-16T12:55:20.951Z,28.20
2022-08-16T12:57:58.400Z,28.60
2022-08-16T13:00:33.551Z,29.00
2022-08-16T13:03:02.190Z,29.40
2022-08-16T13:07:58.836Z,28.90
2022-08-16T13:10:37.942Z,28.60
2022-08-16T13:13:09.110Z,28.70
2022-08-16T13:15:51.602Z,29.00
2022-08-16T13:18:33.909Z,29.10
2022-08-16T13:21:06.068Z,29.20
2022-08-16T13:23:33.698Z,29.20
2022-08-16T13:26:03.511Z,29.00
2022-08-16T13:28:30.301Z,29.00
2022-08-16T13:30:58.586Z,29.10
2022-08-16T13:33:30.783Z,29.10
2022-08-16T13:36:01.177Z,29.00
2022-08-16T13:38:31.432Z,28.80
2022-08-16T13:41:05.963Z,29.10
2022-08-16T13:43:37.183Z,29.20
2022-08-16T13:46:05.041Z,29.40
2022-08-16T13:48:42.730Z,29.20
2022-08-16T13:51:17.537Z,29.30
2022-08-16T13:53:59.758Z,29.20
2022-08-16T13:56:36.781Z,29.50
2022-08-16T13:59:14.286Z,29.50
2022-08-16T14:01:55.710Z,29.60
2022-08-16T14:04:32.618Z,29.20
2022-08-16T14:07:01.987Z,28.90
2022-08-16T14:09:32.074Z,28.80
2022-08-16T14:12:00.886Z,29.00
2022-08-16T14:14:30.043Z,28.80
2022-08-16T14:17:03.313Z,28.90
2022-08-16T14:19:31.071Z,28.50
2022-08-16T14:22:14.492Z,28.80
2022-08-16T14:24:46.635Z,29.10
2022-08-16T14:27:17.930Z,28.90
2022-08-16T14:29:49.374Z,28.50
2022-08-16T14:32:27.100Z,28.30
2022-08-16T14:35:07.141Z,28.70
2022-08-16T14:37:35.083Z,28.70
2022-08-16T14:40:03.077Z,29.00
2022-08-16T14:42:30.522Z,28.60
2022-08-16T14:44:57.364Z,28.30
2022-08-16T14:47:34.252Z,28.10
2022-08-16T14:50:02.066Z,28.30
2022-08-16T14:52:52.374Z,28.60
2022-08-16T14:55:18.030Z,28.40
2022-08-16T14:57:47.426Z,28.40
2022-08-16T15:00:15.767Z,28.60
2022-08-16T15:02:44.902Z,28.70
2022-08-16T15:05:13.087Z,28.50
2022-08-16T15:07:41.324Z,28.60
2022-08-16T15:10:12.057Z,28.50
2022-08-16T15:12:55.517Z,28.70
2022-08-16T15:15:25.580Z,28.80
2022-08-16T15:17:54.147Z,28.60
2022-08-16T15:20:26.258Z,28.50
2022-08-16T15:22:53.890Z,28.60
2022-08-16T15:25:31.760Z,28.50
2022-08-16T15:28:04.538Z,28.20
2022-08-16T15:30:57.609Z,28.20
2022-08-16T15:33:24.608Z,28.60
2022-08-16T15:35:55.511Z,28.90
2022-08-16T15:38:54.728Z,28.80
2022-08-16T15:41:47.812Z,28.60
2022-08-16T15:44:22.112Z,28.80
2022-08-16T15:46:56.510Z,28.70
2022-08-16T15:49:34.632Z,28.50
2022-08-16T15:52:10.567Z,28.00
2022-08-16T15:54:51.482Z,27.90
2022-08-16T15:57:21.402Z,27.80
2022-08-16T15:59:52.441Z,27.80
2022-08-16T16:02:29.526Z,27.90
2022-08-16T16:05:01.692Z,27.10
2022-08-16T16:07:30.914Z,26.80
2022-08-16T16:10:02.534Z,27.00
2022-08-16T16:12:52.910Z,27.00
2022-08-16T16:15:19.045Z,27.00
2022-08-16T16:17:51.305Z,26.90
2022-08-16T16:20:21.406Z,27.10
2022-08-16T16:22:49.352Z,27.30
2022-08-16T16:25:17.789Z,27.10
2022-08-16T16:27:45.621Z,27.00
2022-08-16T16:30:37.509Z,27.10
2022-08-16T16:33:01.115Z,27.00
2022-08-16T16:35:32.726Z,27.00
2022-08-16T16:38:00.170Z,26.70
2022-08-16T16:40:32.269Z,26.50
2022-08-16T16:43:00.018Z,26.50
2022-08-16T16:45:34.902Z,26.60
2022-08-16T16:48:12.785Z,26.50
2022-08-16T16:50:44.647Z,26.50
2022-08-16T16:53:17.320Z,26.60
2022-08-16T16:55:47.768Z,26.30
2022-08-16T16:58:43.395Z,26.10
2022-08-16T17:01:20.434Z,26.20
2022-08-16T17:03:53.688Z,26.40
2022-08-16T17:06:20.866Z,26.20
2022-08-16T17:08:47.831Z,26.20
2022-08-16T17:11:18.617Z,26.20
2022-08-16T17:13:46.161Z,26.10
2022-08-16T17:16:18.469Z,26.20
2022-08-16T17:19:17.152Z,26.20
2022-08-16T17:21:34.402Z,26.30
2022-08-16T17:24:18.282Z,26.40
2022-08-16T17:26:49.172Z,26.20
2022-08-16T17:29:34.766Z,26.20
2022-08-16T17:32:33.830Z,26.10
2022-08-16T17:35:02.374Z,26.00
2022-08-16T17:37:49.729Z,25.80
2022-08-16T17:40:47.959Z,25.80
2022-08-16T17:43:15.255Z,25.80
2022-08-16T17:45:42.920Z,25.80
2022-08-16T17:48:09.894Z,25.80
2022-08-16T17:50:37.467Z,25.80
2022-08-16T17:53:07.314Z,25.80
2022-08-16T17:55:37.455Z,25.80
2022-08-16T17:58:10.554Z,25.80
2022-08-16T18:00:54.529Z,25.70
2022-08-16T18:04:03.234Z,25.70
2022-08-16T18:06:15.545Z,25.60
2022-08-16T18:08:42.774Z,25.50
2022-08-16T18:11:13.357Z,25.30
2022-08-16T18:13:42.974Z,24.90
2022-08-16T18:16:11.291Z,24.60
2022-08-16T18:18:38.121Z,24.20
2022-08-16T18:21:23.577Z,23.80
2022-08-16T18:23:50.344Z,23.30
2022-08-16T18:26:17.271Z,23.00
2022-08-16T18:28:44.186Z,22.70
2022-08-16T18:31:10.922Z,22.50
2022-08-16T18:33:43.743Z,22.30
2022-08-16T18:36:21.183Z,22.00
2022-08-16T18:38:49.388Z,21.70
2022-08-16T18:41:16.938Z,21.50
2022-08-16T18:43:58.839Z,21.40
2022-08-16T18:46:30.524Z,21.20
2022-08-16T18:48:57.274Z,21.00
2022-08-16T18:51:25.495Z,20.80
2022-08-16T18:53:52.982Z,20.70
2022-08-16T18:56:19.806Z,20.50
2022-08-16T18:58:46.579Z,20.50
2022-08-16T19:01:13.559Z,20.40
2022-08-16T19:03:40.484Z,20.30
2022-08-16T19:06:13.983Z,20.20
2022-08-16T19:08:43.489Z,20.00
2022-08-16T19:11:14.059Z,19.80
2022-08-16T19:13:44.160Z,19.70
2022-08-16T19:16:12.179Z,19.60
2022-08-16T19:18:39.053Z,19.50
2022-08-16T19:21:07.147Z,19.40
2022-08-16T19:23:40.271Z,19.30
2022-08-16T19:26:24.370Z,19.30
2022-08-16T19:28:58.426Z,19.40
2022-08-16T19:31:30.265Z,19.30
2022-08-16T19:33:58.070Z,19.30
2022-08-16T19:36:35.994Z,19.20
2022-08-16T19:39:08.806Z,19.20
2022-08-16T19:41:37.551Z,19.10
2022-08-16T19:44:05.788Z,19.00
2022-08-16T19:46:33.107Z,18.80
2022-08-16T19:49:00.172Z,18.70
2022-08-16T19:51:27.298Z,18.60
2022-08-16T19:53:54.224Z,18.50
2022-08-16T19:56:23.112Z,18.50
2022-08-16T19:59:16.405Z,18.30
2022-08-16T20:01:41.882Z,18.30
2022-08-16T20:04:13.137Z,18.20
2022-08-16T20:06:41.452Z,18.10
2022-08-16T20:09:10.468Z,18.00
2022-08-16T20:11:46.412Z,18.00
2022-08-16T20:14:20.123Z,17.90
2022-08-16T20:16:51.906Z,17.80
2022-08-16T20:19:19.140Z,17.70
2022-08-16T20:21:46.196Z,17.70
2022-08-16T20:24:32.633Z,17.60
2022-08-16T20:26:59.850Z,17.60
2022-08-16T20:29:27.883Z,17.40
2022-08-16T20:31:54.709Z,17.40
2022-08-16T20:34:21.430Z,17.20
2022-08-16T20:36:48.148Z,17.20
2022-08-16T20:39:14.952Z,17.10
2022-08-16T20:41:43.034Z,17.10
2022-08-16T20:44:10.805Z,17.10
2022-08-16T20:46:39.132Z,17.10
2022-08-16T20:49:08.928Z,17.10
2022-08-16T20:51:46.873Z,17.10
2022-08-16T20:54:16.880Z,17.10
2022-08-16T20:56:43.611Z,17.00
2022-08-16T20:59:10.317Z,16.90
2022-08-16T21:01:49.606Z,16.90
2022-08-16T21:04:19.652Z,16.80
2022-08-16T21:06:53.210Z,16.80
2022-08-16T21:09:27.076Z,16.70
2022-08-16T21:11:55.631Z,16.60
2022-08-16T21:14:23.657Z,16.60
2022-08-16T21:16:50.620Z,16.60
2022-08-16T21:19:17.982Z,16.60
2022-08-16T21:21:44.735Z,16.50
2022-08-16T21:24:11.744Z,16.50
2022-08-16T21:26:39.075Z,16.50
2022-08-16T21:29:07.753Z,16.50
2022-08-16T21:31:39.455Z,16.50
2022-08-16T21:34:06.693Z,16.40
2022-08-16T21:36:35.665Z,16.40
2022-08-16T21:39:05.611Z,16.40
2022-08-16T21:41:33.043Z,16.30
2022-08-16T21:43:59.790Z,16.30
2022-08-16T21:46:26.531Z,16.30
2022-08-16T21:48:53.384Z,16.30
2022-08-16T21:51:20.868Z,16.30
2022-08-16T21:53:47.651Z,16.30
2022-08-16T21:56:17.342Z,16.30
2022-08-16T21:58:52.709Z,16.20
2022-08-16T22:01:22.204Z,16.20
2022-08-16T22:03:49.743Z,16.20
2022-08-16T22:06:38.044Z,16.20
2022-08-16T22:09:06.363Z,16.10
2022-08-16T22:11:33.737Z,16.00
2022-08-16T22:14:00.926Z,16.00
2022-08-16T22:16:29.822Z,16.00
2022-08-16T22:18:56.747Z,16.10
2022-08-16T22:21:23.853Z,16.00
2022-08-16T22:23:55.258Z,15.90
2022-08-16T22:26:30.888Z,15.80
2022-08-16T22:29:04.564Z,15.80
2022-08-16T22:31:32.227Z,15.70
2022-08-16T22:33:59.319Z,15.70
2022-08-16T22:36:28.484Z,15.70
2022-08-16T22:38:58.695Z,15.70
2022-08-16T22:41:27.358Z,15.50
2022-08-16T22:43:54.191Z,15.50
2022-08-16T22:46:20.967Z,15.50
2022-08-16T22:48:50.282Z,15.50
2022-08-16T22:51:19.027Z,15.50
2022-08-16T22:53:46.256Z,15.50
2022-08-16T22:56:13.164Z,15.50
2022-08-16T22:58:39.891Z,15.50
2022-08-16T23:01:09.012Z,15.60
2022-08-16T23:03:37.141Z,15.60
2022-08-16T23:06:04.979Z,15.60
2022-08-16T23:08:39.022Z,15.60
2022-08-16T23:11:19.402Z,15.50
2022-08-16T23:13:52.762Z,15.40
2022-08-16T23:16:33.062Z,15.40
2022-08-16T23:19:08.037Z,15.40
2022-08-16T23:21:37.224Z,15.50
2022-08-16T23:24:06.187Z,15.50
2022-08-16T23:26:46.829Z,15.40
2022-08-16T23:29:26.518Z,15.40
2022-08-16T23:32:08.452Z,15.40
2022-08-16T23:34:35.228Z,15.40
2022-08-16T23:37:02.043Z,15.40
2022-08-16T23:39:29.402Z,15.40
2022-08-16T23:41:56.400Z,15.30
2022-08-16T23:44:55.974Z,15.30
2022-08-16T23:47:09.966Z,15.30
2022-08-16T23:49:57.071Z,15.30
2022-08-16T23:52:42.337Z,15.20
2022-08-16T23:55:10.569Z,15.20
2022-08-16T23:57:37.443Z,15.20
